Aérodrome :
LOGIN :

S'inscrire | Disclaimer

   EN    FR    IT 

 










Légende :    VFR   VFR Marginal   IFR   IFR Intensif   IFR Très Intensif
Visi : 
Plafond : 
>= 8 km
>= 3000ft
5 à 8 km
1000 à 3000 ft
1500m à 5 km
500 à 1000 ft
800 à 1500m
200 à 500 ft
< 800m
< 200 ft
Symboles :   Orages  Brouillard  Fortes neiges  Fortes précipitations  Vent > 20 kt
SIGMETs :   Divers  Orages  Givrage  Turbulence  Onde Orograph.  Cendres Volcan.






- Altitude de l'aérodrome : 326 ft
- Code IATA : LCG


LECO - A Coruna

DERNIER METAR :
  • 221930Z VRB02KT CAVOK 13/10 Q1017 NOSIG

METARs EXPIRÉS :
  • 221900Z VRB02KT CAVOK 13/10 Q1017 NOSIG
  • 221830Z 02003KT 330V070 CAVOK 13/10 Q1017 NOSIG
  • 221800Z 03004KT 350V070 CAVOK 14/10 Q1016 NOSIG
  • 221730Z 03006KT 340V070 9999 FEW030 15/10 Q1016 NOSIG
  • 221700Z 04007KT 360V080 9999 FEW030 15/10 Q1016 NOSIG

TAF TAF LECO
Valide du 22 à 15h jusqu'au 23 à 15h UTC


221400Z 2215/2315 02010KT 9999 SCT030 TX16/2215Z TN08/2223Z
TEMPO 2215/2220 SCT030TCU
BECMG 2218/2222 VRB03KT
PROB30
TEMPO 2300/2308 3000 -RA BCFG BKN014
BECMG 2310/2312 36010KT



MET'MAP, la Météo Aéronautique d'un coup d'oeil ! - Copyright ORBIFLY Décembre 2007 - Disclaimer

ORBIFLY MET'MAP TEAM :

Programmation & Développement : Alexandra Zaïnal
Conception & Développement : Baudouin d'Aumeries
Co-Programmation & Développement : Marc-Olivier Méhu
Soutien technique & logistique : Manuel Goepfert

Contact : metmap@orbifly.com




SOURCES & CREDITS :

   NOAA